Historique des mesures à Cassis (13260), France
Quotidien Résumé Fevrier 10, 2017 Unités:  US    Métrique   Métrique/US
« Précédent (Jour)
Suivant (Jour) »
Quotidien Hebdomadaire Mensuel Annuel Période au choix
  Maximum: Minimum: Moyenne:
Température: 32 °F 46.2 °F 49.6 °F
Point de rosée: 32 °F 39.4 °F 41.5 °F
Humidité: Humidity % 68 % 70 %
Vitesse du vent: WindSpeedKMH mph 0.0 mph 0.5 mph
Rafales: WindSpeedGustKMH mph - -
Vent:- - South
Pression: 0 in 29.9 in -
Précipitations: 0 in    
Historical Graphs
 
 
Mesures pour : Fevrier 10, 2017
Heure Temperature Point de rosée Pression Vent Vitesse du vent Rafales Humidité Pluie (par heure) Conditions
32 °F 32 °F 0 in Calm     Humidity % 0 in SoftwareType W/m2
00:11 48 °F 41.2 °F 30 in Calm     77 % 0 in open2300-1.11 W/m2
03:10 47.5 °F 40.8 °F 29.9 in Calm   6.4 mph 78 % 0 in open2300-1.11 W/m2
04:11 47.1 °F 40.6 °F 29.9 in Calm     78 % 0 in open2300-1.11 W/m2
05:10 46.8 °F 39.9 °F 29.9 in Calm     77 % 0 in open2300-1.11 W/m2
06:11 46.4 °F 39.9 °F 29.9 in Calm     78 % 0 in open2300-1.11 W/m2
07:10 46.2 °F 39.4 °F 29.9 in Calm     77 % 0 in open2300-1.11 W/m2
08:11 46.2 °F 39.7 °F 29.9 in Calm     78 % 0 in open2300-1.11 W/m2
09:10 47.7 °F 40.8 °F 30 in Calm     77 % 0 in open2300-1.11 W/m2
10:11 49.6 °F 42.1 °F 30 in Calm     75 % 0 in open2300-1.11 W/m2
11:10 51.6 °F 43 °F 30 in ENE 4.0 mph 4.0 mph 72 % 0 in open2300-1.11 W/m2
12:11 52.3 °F 43.3 °F 30 in Calm   2.6 mph 71 % 0 in open2300-1.11 W/m2
13:10 54.1 °F 44.6 °F 30 in Calm     70 % 0 in open2300-1.11 W/m2
14:11 54.7 °F 44.8 °F 30 in Calm     69 % 0 in open2300-1.11 W/m2
15:10 55.4 °F 45.5 °F 30 in Calm   3.5 mph 69 % 0 in open2300-1.11 W/m2
16:11 55.9 °F 45.5 °F 30 in Calm   2.1 mph 68 % 0 in open2300-1.11 W/m2
17:10 54.3 °F 44.1 °F 30 in Calm     68 % 0 in open2300-1.11 W/m2
18:11 52.7 °F 42.8 °F 30 in Calm     69 % 0 in open2300-1.11 W/m2
19:10 51.8 °F 42.4 °F 30 in Calm     70 % 0 in open2300-1.11 W/m2
20:11 51.1 °F 41.7 °F 30 in Calm     70 % 0 in open2300-1.11 W/m2
21:10 50.5 °F 41.2 °F 30 in WNW 2.6 mph 2.6 mph 70 % 0 in open2300-1.11 W/m2
22:11 50.2 °F 41.2 °F 30 in WSW 3.5 mph 5.0 mph 71 % 0 in open2300-1.11 W/m2
23:10 49.6 °F 40.6 °F 30 in ESE 2.1 mph 2.1 mph 71 % 0 in open2300-1.11 W/m2
Observations météo à CASSIS
WU-History script by Weather Underground - 1 mb